Andover, Massachusetts
Current Conditions -  °F | °C
As of 6:54 PM on Sunday 25 Jan 2015 (Local Time) from KLWM Reporting Station
Clear Clear  
Wind Chill: 16°   Ceiling: Unl
Heat Index: 25°   Visibility: 10mi
Dew Point:   Wind: 8mph
Humidity: 43%   Direction: 300°WNW
Pressure: 29.9"   Gusts: 18mph
Location:  42.65°N, 71.14°W
Report Text: KLWM 252354Z 30007G16KT 10SM CLR M04/M15 A2990 RMK AO2 PRESRR SLP127 T10391150 10011 21039 53054
Loading
Personal Weather Stations






























Interactive Weather Map New forecast layout! Learn more

10-Day Weather Forecast

Advertisements
Track Severe Weather on mobile